createdAt,value
2022-10-28T00:01:06.028Z,20.58
2022-10-28T00:03:33.516Z,19.75
2022-10-28T00:06:09.656Z,15.13
2022-10-28T00:08:36.726Z,16.02
2022-10-28T00:11:08.624Z,19.17
2022-10-28T00:13:36.300Z,16.10
2022-10-28T00:16:09.138Z,15.63
2022-10-28T00:18:36.357Z,17.48
2022-10-28T00:21:06.036Z,19.08
2022-10-28T00:23:34.923Z,14.77
2022-10-28T00:26:20.990Z,15.15
2022-10-28T00:28:53.160Z,19.52
2022-10-28T00:31:21.414Z,19.27
2022-10-28T00:33:51.315Z,17.67
2022-10-28T00:36:23.942Z,18.17
2022-10-28T00:38:52.580Z,18.85
2022-10-28T00:41:39.537Z,18.13
2022-10-28T00:44:44.039Z,15.52
2022-10-28T00:47:21.577Z,21.42
2022-10-28T00:49:53.047Z,16.10
2022-10-28T00:52:26.710Z,19.25
2022-10-28T00:54:56.742Z,15.88
2022-10-28T00:57:28.728Z,15.63
2022-10-28T00:59:55.892Z,17.38
2022-10-28T01:02:25.169Z,17.30
2022-10-28T01:04:54.711Z,20.95
2022-10-28T01:07:22.253Z,19.88
2022-10-28T01:09:49.000Z,15.95
2022-10-28T01:12:30.177Z,18.58
2022-10-28T01:15:02.910Z,18.65
2022-10-28T01:17:48.390Z,18.27
2022-10-28T01:20:41.553Z,16.00
2022-10-28T01:23:50.714Z,16.63
2022-10-28T01:27:08.246Z,16.38
2022-10-28T01:30:07.935Z,14.27
2022-10-28T01:32:43.688Z,17.10
2022-10-28T01:35:17.351Z,18.00
2022-10-28T01:37:48.889Z,15.55
2022-10-28T01:40:27.052Z,14.90
2022-10-28T01:43:07.883Z,17.13
2022-10-28T01:45:41.151Z,15.67
2022-10-28T01:48:19.524Z,17.65
2022-10-28T01:51:50.979Z,19.73
2022-10-28T01:54:23.965Z,17.50
2022-10-28T01:56:52.715Z,18.55
2022-10-28T01:59:28.972Z,16.27
2022-10-28T02:01:58.913Z,14.45
2022-10-28T02:04:27.970Z,19.38
2022-10-28T02:07:00.438Z,20.67
2022-10-28T02:09:55.996Z,22.73
2022-10-28T02:12:28.470Z,18.25
2022-10-28T02:17:57.028Z,14.50
2022-10-28T02:20:32.485Z,18.63
2022-10-28T02:23:07.906Z,19.23
2022-10-28T02:26:02.408Z,17.48
2022-10-28T02:28:36.914Z,16.40
2022-10-28T02:31:18.398Z,21.17
2022-10-28T02:33:52.344Z,15.32
2022-10-28T02:36:22.043Z,15.77
2022-10-28T02:38:58.537Z,17.52
2022-10-28T02:41:46.179Z,18.88
2022-10-28T02:44:18.682Z,17.95
2022-10-28T02:46:50.835Z,19.95
2022-10-28T02:49:20.347Z,14.23
2022-10-28T02:51:57.387Z,17.00
2022-10-28T02:54:37.799Z,13.75
2022-10-28T02:57:10.409Z,16.42
2022-10-28T02:59:37.105Z,16.50
2022-10-28T03:02:07.445Z,18.20
2022-10-28T03:04:36.449Z,16.73
2022-10-28T03:07:03.329Z,16.85
2022-10-28T03:09:30.054Z,12.23
2022-10-28T03:11:57.000Z,12.98
2022-10-28T03:14:23.761Z,15.38
2022-10-28T03:16:50.811Z,15.38
2022-10-28T03:19:19.706Z,16.20
2022-10-28T03:21:46.441Z,17.42
2022-10-28T03:24:13.185Z,18.63
2022-10-28T03:26:41.257Z,17.42
2022-10-28T03:29:08.121Z,19.70
2022-10-28T03:31:35.142Z,15.55
2022-10-28T03:34:01.889Z,16.98
2022-10-28T03:36:28.671Z,17.48
2022-10-28T03:38:55.363Z,16.13
2022-10-28T03:41:22.050Z,21.67
2022-10-28T03:43:51.013Z,15.63
2022-10-28T03:46:19.032Z,18.23
2022-10-28T03:48:45.737Z,18.83
2022-10-28T03:51:14.736Z,20.80
2022-10-28T03:53:41.450Z,18.33
2022-10-28T03:56:09.518Z,20.05
2022-10-28T03:58:41.436Z,19.67
2022-10-28T04:01:08.647Z,21.95
2022-10-28T04:03:35.419Z,24.35
2022-10-28T04:06:02.280Z,24.30
2022-10-28T04:08:31.527Z,20.38
2022-10-28T04:10:58.312Z,15.93
2022-10-28T04:13:25.092Z,21.75
2022-10-28T04:15:53.983Z,23.35
2022-10-28T04:18:20.667Z,24.95
2022-10-28T04:20:47.376Z,25.40
2022-10-28T04:23:19.230Z,19.17
2022-10-28T04:25:54.770Z,21.80
2022-10-28T04:28:24.784Z,22.30
2022-10-28T04:30:51.524Z,20.58
2022-10-28T04:33:20.651Z,25.00
2022-10-28T04:35:47.445Z,19.75
2022-10-28T04:38:15.332Z,22.20
2022-10-28T04:40:45.386Z,26.63
2022-10-28T04:43:14.375Z,25.02
2022-10-28T04:45:41.067Z,18.80
2022-10-28T04:48:10.627Z,21.55
2022-10-28T04:50:37.338Z,26.42
2022-10-28T04:53:04.353Z,26.67
2022-10-28T04:55:33.603Z,26.33
2022-10-28T04:58:01.263Z,23.55
2022-10-28T05:00:31.613Z,22.42
2022-10-28T05:03:03.859Z,25.10
2022-10-28T05:05:33.425Z,31.58
2022-10-28T05:08:02.482Z,25.88
2022-10-28T05:10:31.441Z,27.67
2022-10-28T05:12:58.350Z,21.88
2022-10-28T05:15:26.577Z,27.25
2022-10-28T05:17:54.028Z,24.13
2022-10-28T05:20:21.276Z,23.65
2022-10-28T05:22:53.732Z,24.40
2022-10-28T05:25:23.667Z,22.95
2022-10-28T05:27:50.894Z,27.52
2022-10-28T05:30:18.145Z,19.83
2022-10-28T05:32:45.386Z,25.80
2022-10-28T05:35:14.362Z,20.75
2022-10-28T05:37:41.221Z,20.45
2022-10-28T05:40:08.699Z,22.48
2022-10-28T05:42:41.150Z,19.08
2022-10-28T05:45:08.654Z,21.25
2022-10-28T05:47:37.815Z,16.00
2022-10-28T05:50:09.569Z,15.77
2022-10-28T05:52:36.275Z,21.27
2022-10-28T05:55:05.139Z,20.42
2022-10-28T05:57:35.698Z,17.73
2022-10-28T06:00:03.691Z,22.60
2022-10-28T06:02:32.602Z,17.20
2022-10-28T06:04:59.326Z,20.15
2022-10-28T06:07:28.341Z,22.30
2022-10-28T06:09:59.747Z,25.35
2022-10-28T06:12:27.292Z,25.15
2022-10-28T06:14:54.065Z,19.88
2022-10-28T06:17:24.019Z,19.35
2022-10-28T06:19:50.972Z,22.77
2022-10-28T06:22:22.355Z,21.65
2022-10-28T06:24:49.058Z,24.40
2022-10-28T06:27:15.894Z,19.75
2022-10-28T06:29:42.639Z,20.55
2022-10-28T06:32:09.573Z,16.35
2022-10-28T06:34:37.753Z,20.48
2022-10-28T06:37:09.075Z,17.52
2022-10-28T06:39:38.244Z,18.48
2022-10-28T06:42:05.241Z,22.40
2022-10-28T06:44:31.914Z,17.80
2022-10-28T06:47:00.317Z,20.98
2022-10-28T06:49:30.846Z,22.90
2022-10-28T06:51:57.489Z,19.67
2022-10-28T06:54:24.247Z,19.08
2022-10-28T06:56:53.257Z,21.73
2022-10-28T06:59:20.018Z,19.27
2022-10-28T07:01:46.816Z,19.27
2022-10-28T07:04:14.007Z,18.88
2022-10-28T07:06:41.248Z,28.27
2022-10-28T07:09:09.439Z,20.50
2022-10-28T07:11:36.152Z,22.65
2022-10-28T07:14:02.908Z,19.42
2022-10-28T07:16:32.113Z,20.27
2022-10-28T07:18:58.839Z,19.70
2022-10-28T07:21:29.385Z,24.05
2022-10-28T07:23:56.815Z,19.75
2022-10-28T07:26:26.136Z,24.35
2022-10-28T07:28:53.279Z,19.50
2022-10-28T07:31:23.280Z,19.55
2022-10-28T07:33:53.971Z,23.65
2022-10-28T07:36:21.297Z,18.90
2022-10-28T07:38:52.422Z,26.65
2022-10-28T07:41:20.756Z,20.85
2022-10-28T07:43:52.010Z,19.73
2022-10-28T07:46:19.192Z,14.68
2022-10-28T07:48:46.151Z,20.08
2022-10-28T07:51:15.124Z,16.20
2022-10-28T07:53:42.489Z,18.67
2022-10-28T07:56:14.548Z,17.63
2022-10-28T07:58:43.141Z,20.77
2022-10-28T08:01:11.657Z,20.48
2022-10-28T08:03:39.354Z,22.60
2022-10-28T08:06:22.011Z,22.77
2022-10-28T08:08:52.939Z,20.95
2022-10-28T08:11:23.800Z,16.33
2022-10-28T08:13:51.982Z,18.83
2022-10-28T08:16:19.382Z,20.08
2022-10-28T08:18:46.426Z,19.98
2022-10-28T08:21:14.423Z,20.88
2022-10-28T08:23:46.494Z,21.40
2022-10-28T08:26:14.665Z,19.60
2022-10-28T08:28:44.024Z,20.63
2022-10-28T08:31:12.350Z,17.60
2022-10-28T08:33:45.232Z,19.17
2022-10-28T08:36:15.440Z,21.08
2022-10-28T08:38:46.703Z,17.80
2022-10-28T08:41:31.323Z,21.08
2022-10-28T08:44:13.520Z,22.40
2022-10-28T08:47:15.782Z,21.05
2022-10-28T08:49:47.067Z,19.83
2022-10-28T08:53:00.333Z,18.13
2022-10-28T08:55:43.425Z,21.63
2022-10-28T08:58:25.263Z,18.35
2022-10-28T09:00:54.947Z,23.30
2022-10-28T09:03:25.862Z,18.98
2022-10-28T09:06:20.304Z,18.63
2022-10-28T09:08:53.322Z,20.42
2022-10-28T09:11:45.687Z,23.88
2022-10-28T09:14:25.683Z,20.83
2022-10-28T09:17:22.838Z,20.77
2022-10-28T09:19:56.090Z,24.38
2022-10-28T09:22:48.961Z,16.50
2022-10-28T09:25:25.938Z,15.45
2022-10-28T09:28:37.839Z,15.43
2022-10-28T09:31:38.297Z,21.08
2022-10-28T09:34:18.213Z,19.27
2022-10-28T09:37:24.311Z,21.50
2022-10-28T09:39:55.931Z,17.00
2022-10-28T09:42:28.685Z,22.20
2022-10-28T09:45:06.135Z,23.42
2022-10-28T09:47:45.940Z,22.30
2022-10-28T09:50:28.279Z,21.10
2022-10-28T09:53:22.636Z,21.25
2022-10-28T09:55:50.890Z,12.93
2022-10-28T09:58:18.711Z,18.95
2022-10-28T10:00:47.814Z,18.33
2022-10-28T10:03:16.288Z,18.35
2022-10-28T10:05:47.728Z,14.68
2022-10-28T10:10:47.772Z,19.58
2022-10-28T10:13:18.011Z,13.98
2022-10-28T10:15:53.857Z,22.08
2022-10-28T10:18:25.939Z,18.15
2022-10-28T10:21:00.567Z,19.63
2022-10-28T10:23:37.393Z,17.35
2022-10-28T10:26:12.299Z,17.67
2022-10-28T10:28:48.819Z,18.60
2022-10-28T10:31:29.806Z,24.38
2022-10-28T10:33:57.912Z,16.88
2022-10-28T10:36:31.353Z,18.13
2022-10-28T10:39:02.274Z,16.83
2022-10-28T10:41:40.548Z,16.13
2022-10-28T10:44:22.379Z,17.45
2022-10-28T10:47:05.970Z,13.45
2022-10-28T10:49:34.753Z,20.58
2022-10-28T10:52:18.252Z,15.13
2022-10-28T10:55:21.000Z,21.27
2022-10-28T10:57:51.014Z,16.48
2022-10-28T11:00:20.965Z,14.88
2022-10-28T11:02:50.011Z,21.75
2022-10-28T11:05:25.754Z,18.83
2022-10-28T11:07:58.356Z,21.45
2022-10-28T11:10:30.902Z,19.00
2022-10-28T11:13:01.200Z,18.58
2022-10-28T11:15:30.013Z,16.83
2022-10-28T11:18:11.845Z,15.82
2022-10-28T11:20:59.474Z,15.32
2022-10-28T11:23:54.840Z,17.85
2022-10-28T11:26:24.013Z,21.67
2022-10-28T11:29:03.557Z,18.77
2022-10-28T11:31:48.136Z,17.25
2022-10-28T11:34:17.647Z,17.42
2022-10-28T11:37:09.727Z,16.30
2022-10-28T11:40:07.784Z,17.35
2022-10-28T11:43:13.639Z,17.08
2022-10-28T11:45:40.304Z,16.73
2022-10-28T11:48:09.778Z,18.08
2022-10-28T11:50:58.867Z,19.42
2022-10-28T11:53:44.068Z,15.27
2022-10-28T11:56:33.869Z,21.55
2022-10-28T11:59:02.934Z,21.30
2022-10-28T12:02:13.887Z,21.83
2022-10-28T12:05:15.408Z,15.43
2022-10-28T12:08:21.184Z,17.63
2022-10-28T12:11:31.074Z,17.73
2022-10-28T12:14:24.426Z,16.15
2022-10-28T12:17:04.446Z,18.63
2022-10-28T12:19:43.005Z,17.70
2022-10-28T12:22:43.400Z,23.42
2022-10-28T12:25:23.468Z,23.73
2022-10-28T12:27:54.029Z,21.13
2022-10-28T12:30:42.112Z,19.67
2022-10-28T12:33:24.324Z,16.67
2022-10-28T12:36:09.062Z,19.85
2022-10-28T12:39:00.018Z,19.95
2022-10-28T12:41:33.507Z,18.35
2022-10-28T12:44:08.800Z,16.50
2022-10-28T12:46:54.711Z,16.65
2022-10-28T12:49:52.162Z,18.45
2022-10-28T12:52:30.573Z,19.08
2022-10-28T12:55:11.909Z,15.90
2022-10-28T13:00:20.277Z,17.65
2022-10-28T13:03:03.428Z,16.50
2022-10-28T13:06:02.217Z,17.23
2022-10-28T13:08:43.620Z,22.13
2022-10-28T13:14:05.073Z,13.70
2022-10-28T13:17:07.213Z,17.25
2022-10-28T13:20:02.575Z,15.80
2022-10-28T13:22:59.376Z,12.52
2022-10-28T13:25:34.228Z,17.95
2022-10-28T13:28:02.098Z,18.77
2022-10-28T13:30:32.195Z,19.17
2022-10-28T13:33:19.687Z,17.35
2022-10-28T13:35:47.221Z,18.02
2022-10-28T13:38:24.222Z,18.77
2022-10-28T13:40:59.758Z,18.77
2022-10-28T13:44:05.683Z,17.40
2022-10-28T13:46:59.993Z,14.82
2022-10-28T13:49:34.012Z,17.92
2022-10-28T13:52:06.534Z,21.05
2022-10-28T13:54:45.125Z,19.08
2022-10-28T13:57:34.845Z,21.23
2022-10-28T14:00:04.599Z,20.70
2022-10-28T14:02:46.507Z,19.70
2022-10-28T14:05:15.664Z,18.75
2022-10-28T14:07:57.579Z,18.27
2022-10-28T14:10:28.748Z,20.33
2022-10-28T14:13:06.039Z,17.15
2022-10-28T14:15:38.600Z,18.05
2022-10-28T14:18:37.403Z,19.83
2022-10-28T14:21:01.840Z,24.67
2022-10-28T14:23:30.943Z,21.08
2022-10-28T14:26:04.537Z,16.85
2022-10-28T14:28:33.489Z,20.02
2022-10-28T14:31:12.233Z,21.90
2022-10-28T14:34:05.063Z,17.65
2022-10-28T14:37:01.077Z,20.13
2022-10-28T14:39:46.960Z,15.75
2022-10-28T14:42:34.176Z,18.17
2022-10-28T14:45:36.426Z,16.27
2022-10-28T14:48:21.738Z,22.02
2022-10-28T14:50:51.754Z,19.20
2022-10-28T14:53:22.334Z,17.63
2022-10-28T14:55:58.686Z,16.67
2022-10-28T14:58:30.598Z,18.50
2022-10-28T15:01:15.268Z,19.65
2022-10-28T15:03:47.307Z,13.98
2022-10-28T15:06:34.791Z,23.27
2022-10-28T15:09:22.851Z,21.38
2022-10-28T15:11:59.118Z,16.70
2022-10-28T15:14:55.851Z,18.17
2022-10-28T15:17:36.953Z,22.20
2022-10-28T15:20:15.520Z,19.40
2022-10-28T15:22:44.429Z,17.80
2022-10-28T15:25:16.603Z,22.58
2022-10-28T15:27:46.899Z,19.05
2022-10-28T15:30:23.550Z,17.40
2022-10-28T15:32:51.684Z,22.73
2022-10-28T15:35:30.582Z,22.48
2022-10-28T15:38:21.566Z,21.23
2022-10-28T15:40:49.103Z,24.60
2022-10-28T15:43:30.613Z,19.73
2022-10-28T15:48:41.098Z,22.75
2022-10-28T15:51:16.255Z,23.27
2022-10-28T15:53:44.797Z,20.77
2022-10-28T15:56:16.724Z,22.45
2022-10-28T15:58:59.509Z,25.55
2022-10-28T16:01:33.083Z,19.65
2022-10-28T16:04:00.538Z,20.55
2022-10-28T16:06:33.669Z,18.33
2022-10-28T16:09:22.305Z,18.08
2022-10-28T16:12:17.022Z,23.67
2022-10-28T16:14:53.855Z,18.08
2022-10-28T16:17:23.755Z,21.58
2022-10-28T16:20:02.211Z,17.83
2022-10-28T16:22:31.098Z,20.63
2022-10-28T16:24:57.897Z,17.70
2022-10-28T16:27:27.545Z,14.85
2022-10-28T16:29:59.023Z,17.83
2022-10-28T16:32:33.934Z,18.85
2022-10-28T16:35:02.521Z,18.35
2022-10-28T16:37:31.949Z,17.60
2022-10-28T16:40:01.012Z,18.85
2022-10-28T16:42:27.916Z,18.55
2022-10-28T16:44:56.809Z,15.60
2022-10-28T16:47:29.086Z,12.00
2022-10-28T16:49:57.631Z,15.25
2022-10-28T16:52:33.635Z,20.13
2022-10-28T16:55:02.687Z,18.92
2022-10-28T16:57:30.198Z,16.58
2022-10-28T16:59:59.505Z,18.38
2022-10-28T17:02:35.052Z,21.58
2022-10-28T17:05:05.128Z,18.75
2022-10-28T17:07:34.783Z,19.40
2022-10-28T17:10:02.351Z,16.25
2022-10-28T17:12:31.465Z,15.70
2022-10-28T17:15:05.928Z,14.63
2022-10-28T17:17:32.701Z,17.50
2022-10-28T17:19:59.534Z,17.92
2022-10-28T17:22:28.771Z,20.35
2022-10-28T17:25:00.524Z,20.80
2022-10-28T17:27:27.471Z,21.42
2022-10-28T17:29:59.509Z,21.15
2022-10-28T17:32:31.430Z,19.92
2022-10-28T17:34:58.230Z,20.27
2022-10-28T17:37:32.784Z,18.77
2022-10-28T17:40:02.484Z,21.23
2022-10-28T17:42:31.608Z,21.33
2022-10-28T17:44:58.332Z,20.80
2022-10-28T17:47:28.174Z,27.35
2022-10-28T17:49:57.368Z,28.13
2022-10-28T17:52:38.479Z,19.88
2022-10-28T17:55:08.468Z,23.75
2022-10-28T17:57:35.334Z,19.63
2022-10-28T18:00:04.784Z,27.90
2022-10-28T18:02:31.627Z,24.08
2022-10-28T18:04:58.474Z,23.77
2022-10-28T18:07:26.702Z,23.52
2022-10-28T18:09:53.472Z,27.52
2022-10-28T18:12:20.363Z,24.45
2022-10-28T18:14:49.610Z,26.88
2022-10-28T18:17:19.390Z,22.17
2022-10-28T18:19:48.621Z,23.40
2022-10-28T18:22:17.860Z,22.73
2022-10-28T18:24:44.653Z,26.80
2022-10-28T18:27:14.391Z,21.05
2022-10-28T18:29:41.095Z,22.67
2022-10-28T18:32:07.933Z,23.23
2022-10-28T18:34:37.195Z,23.05
2022-10-28T18:37:08.714Z,24.25
2022-10-28T18:42:02.494Z,27.67
2022-10-28T18:44:31.893Z,29.50
2022-10-28T18:46:59.148Z,19.65
2022-10-28T18:49:25.881Z,25.67
2022-10-28T18:51:59.675Z,20.75
2022-10-28T18:54:26.404Z,24.75
2022-10-28T18:56:58.506Z,22.25
2022-10-28T18:59:28.296Z,27.65
2022-10-28T19:02:00.778Z,21.85
2022-10-28T19:04:30.405Z,27.48
2022-10-28T19:06:59.646Z,27.63
2022-10-28T19:09:26.415Z,23.60
2022-10-28T19:11:55.406Z,27.42
2022-10-28T19:14:24.345Z,21.30
2022-10-28T19:16:53.403Z,25.25
2022-10-28T19:19:22.388Z,18.85
2022-10-28T19:21:51.901Z,25.65
2022-10-28T19:24:21.968Z,28.02
2022-10-28T19:26:50.915Z,21.15
2022-10-28T19:29:19.895Z,25.90
2022-10-28T19:31:46.984Z,25.50
2022-10-28T19:34:16.184Z,25.63
2022-10-28T19:36:43.180Z,25.13
2022-10-28T19:39:09.992Z,25.00
2022-10-28T19:41:36.732Z,21.75
2022-10-28T19:44:04.222Z,29.20
2022-10-28T19:46:33.909Z,18.70
2022-10-28T19:49:05.145Z,26.83
2022-10-28T19:51:40.725Z,29.60
2022-10-28T19:54:14.448Z,25.75
2022-10-28T19:56:44.294Z,23.95
2022-10-28T19:59:13.251Z,28.15
2022-10-28T20:01:41.019Z,31.48
2022-10-28T20:04:11.780Z,27.80
2022-10-28T20:06:40.184Z,27.97
2022-10-28T20:09:09.700Z,32.28
2022-10-28T20:11:40.658Z,26.05
2022-10-28T20:14:12.674Z,30.30
2022-10-28T20:16:42.693Z,29.95
2022-10-28T20:19:12.687Z,29.90
2022-10-28T20:21:40.219Z,30.55
2022-10-28T20:24:07.840Z,26.80
2022-10-28T20:26:36.685Z,26.42
2022-10-28T20:29:03.935Z,32.80
2022-10-28T20:31:31.785Z,26.55
2022-10-28T20:34:03.683Z,35.20
2022-10-28T20:36:44.314Z,29.52
2022-10-28T20:39:12.540Z,27.80
2022-10-28T20:41:40.368Z,29.63
2022-10-28T20:44:07.669Z,28.60
2022-10-28T20:46:35.253Z,28.00
2022-10-28T20:49:02.863Z,32.47
2022-10-28T20:51:31.712Z,31.33
2022-10-28T20:53:59.005Z,30.48
2022-10-28T20:56:28.044Z,33.17
2022-10-28T20:58:55.876Z,35.08
2022-10-28T21:01:30.213Z,32.40
2022-10-28T21:04:00.771Z,27.63
2022-10-28T21:06:28.433Z,41.92
2022-10-28T21:08:56.589Z,34.13
2022-10-28T21:11:24.447Z,35.90
2022-10-28T21:13:58.794Z,33.45
2022-10-28T21:16:27.229Z,37.35
2022-10-28T21:18:54.477Z,32.83
2022-10-28T21:21:22.909Z,34.55
2022-10-28T21:23:49.697Z,33.45
2022-10-28T21:26:16.694Z,38.72
2022-10-28T21:28:43.478Z,33.85
2022-10-28T21:31:16.152Z,36.05
2022-10-28T21:36:21.138Z,33.35
2022-10-28T21:38:48.090Z,32.35
2022-10-28T21:41:17.487Z,33.83
2022-10-28T21:43:47.803Z,42.05
2022-10-28T21:46:15.712Z,38.13
2022-10-28T21:48:45.078Z,28.55
2022-10-28T21:51:15.792Z,37.08
2022-10-28T21:53:43.824Z,32.47
2022-10-28T21:56:16.634Z,27.27
2022-10-28T21:58:47.362Z,29.05
2022-10-28T22:01:16.804Z,28.13
2022-10-28T22:03:43.623Z,21.90
2022-10-28T22:06:10.550Z,22.33
2022-10-28T22:08:37.256Z,22.27
2022-10-28T22:11:06.790Z,17.27
2022-10-28T22:13:34.318Z,19.02
2022-10-28T22:16:03.303Z,21.05
2022-10-28T22:18:30.829Z,20.25
2022-10-28T22:21:02.963Z,27.58
2022-10-28T22:23:29.679Z,26.10
2022-10-28T22:26:10.661Z,40.40
2022-10-28T22:28:40.254Z,37.05
2022-10-28T22:31:12.874Z,36.50
2022-10-28T22:33:40.127Z,36.25
2022-10-28T22:36:09.628Z,34.67
2022-10-28T22:38:39.182Z,33.97
2022-10-28T22:41:08.574Z,39.20
2022-10-28T22:43:35.363Z,37.92
2022-10-28T22:46:02.727Z,28.38
2022-10-28T22:48:32.451Z,31.38
2022-10-28T22:50:59.997Z,42.55
2022-10-28T22:53:27.037Z,33.65
2022-10-28T22:55:54.444Z,32.25
2022-10-28T22:58:22.241Z,33.72
2022-10-28T23:00:49.791Z,35.58
2022-10-28T23:03:16.940Z,31.13
2022-10-28T23:05:43.665Z,33.58
2022-10-28T23:08:16.793Z,31.25
2022-10-28T23:10:45.692Z,26.55
2022-10-28T23:13:13.668Z,24.83
2022-10-28T23:15:40.506Z,28.23
2022-10-28T23:18:07.321Z,26.15
2022-10-28T23:20:38.178Z,34.80
2022-10-28T23:23:07.111Z,23.13
2022-10-28T23:25:35.995Z,22.13
2022-10-28T23:28:07.557Z,26.67
2022-10-28T23:33:00.993Z,33.03
2022-10-28T23:35:30.136Z,26.23
2022-10-28T23:37:59.174Z,23.67
2022-10-28T23:40:26.180Z,31.50
2022-10-28T23:42:55.411Z,29.08
2022-10-28T23:45:22.397Z,30.23
2022-10-28T23:47:49.328Z,24.75
2022-10-28T23:50:18.285Z,30.30
2022-10-28T23:52:44.966Z,29.02
2022-10-28T23:55:11.608Z,23.48
2022-10-28T23:57:40.731Z,34.20
